Overview Statistics Trail Chart Weather Telemetry Raw packets
 

This is the latest recevied telemetry packets stored in our database for station/object DG7RJ-12. If no packets are shown the sender has not sent any telemetry packets the latest 10 day(s).

Telemetry packets is used to share measurements like repeteater parameters, battery voltage, radiation readings (or any other measurements).

<< 1 2 3 4 >>
Time Press* Temp.in* Hum* QNH* Temp.out*
1788613563 968.8 hPa 26.8 C deg 49.6 % 1021.6 hPa 29.1 C deg
1788612718 969.1 hPa 26.7 C deg 49.7 % 1021.9 hPa 29.6 C deg
1788610905 968.9 hPa 26.5 C deg 49.5 % 1021.7 hPa 28.8 C deg
1788609955 969 hPa 26.4 C deg 49.4 % 1021.8 hPa 29.6 C deg
1788608136 969.1 hPa 26.1 C deg 49.7 % 1022 hPa 29.7 C deg
1788606321 969 hPa 25.9 C deg 50.2 % 1022 hPa 27.8 C deg
1788604504 968.9 hPa 25.6 C deg 50.3 % 1021.9 hPa 27.1 C deg
1788602689 969 hPa 25.3 C deg 50.8 % 1022 hPa 22.6 C deg
1788600874 969.2 hPa 25.1 C deg 51.3 % 1022.3 hPa 21 C deg
1788599063 969.1 hPa 25 C deg 51.2 % 1022.2 hPa 18.1 C deg
1788597244 968.8 hPa 24.8 C deg 51.4 % 1021.9 hPa 16.1 C deg
1788595433 968.8 hPa 24.9 C deg 50.9 % 1021.9 hPa 15.2 C deg
1788593617 968.6 hPa 24.9 C deg 50.7 % 1021.7 hPa 15.1 C deg
1788591806 968.5 hPa 24.9 C deg 50.5 % 1021.6 hPa 14.8 C deg
1788589984 968.3 hPa 24.9 C deg 50.3 % 1021.4 hPa 14.6 C deg
1788588172 968.1 hPa 25 C deg 50.2 % 1021.2 hPa 14.3 C deg
1788584549 967.5 hPa 25.2 C deg 49.6 % 1020.5 hPa 14.1 C deg
1788582724 967.1 hPa 25.3 C deg 49.5 % 1020.1 hPa 17.4 C deg
1788580917 966.4 hPa 25.4 C deg 49.6 % 1019.3 hPa 17.7 C deg
1788579092 965.8 hPa 25.5 C deg 49.6 % 1018.7 hPa 17.9 C deg
1788577281 965.5 hPa 25.6 C deg 49.8 % 1018.3 hPa 18.4 C deg
1788575463 964.7 hPa 25.7 C deg 49.8 % 1017.4 hPa 18.4 C deg
1788573651 964.3 hPa 25.8 C deg 49.7 % 1017.1 hPa 19.3 C deg
1788571833 963.6 hPa 25.8 C deg 49.6 % 1016.2 hPa 19.7 C deg
1788570017 963.4 hPa 25.9 C deg 49.5 % 1016 hPa 20.2 C deg
*Used Equation Coefficients:
Press: 0, 1, 0
Temp.in: 0, 1, 0
Hum: 0, 1, 0
QNH: 0, 1, 0
Temp.out: 0, 1, 0

  • The parameter names for the analog channels will be Value1, Value2, Value3 (up to Value5) if station has not sent a PARAM-packet that specifies the parameter names for each analog channel.
  • Each analog value is a decimal number between 000 and 255 (according to APRS specifications). The receiver use the telemetry equation coefficientsto to restore the original sensor values. If no EQNS-packet with equation coefficients is sent we will show the values as is (this corresponds to the equation coefficients a=0, b=1 and c=0).
    The sent equation coefficients is used in the equation: a * value2 + b * value + c.
  • The units for the analog values will not be shown if station has not sent a UNIT-packet specifying what unit's to use.
  • The parameter names for the digital bits will be Bit1, Bit2, Bit3 (up to Bit8) if station has not sent a PARAM-packet that specifies the parameter names for each digital bit.
  • All bit labels will be named "On" if station has not sent a UNIT-packet that specifies the label of each bit.
  • A bit is considered to be On when the bit is 1 if station has not sent a BITS-packet that specifies another "Bit sense" (a BITS-packet specify the state of the bits that match the BIT labels)